Time;durP1;ratioP1;P1;durP2;ratioP2;P2;SDS_P1;SDS_P2;PMS_P1;PMS_P2;Temp;Humidity;BMP_temperature;BMP_pressure;BME280_temperature;BME280_humidity;BME280_pressure;Samples;Min_cycle;Max_cycle;Signal;HPM_P1;HPM_P2
2022/04/27 00:01:09;;;;;;;7.80;4.40;;;17.20;95.70;;;;;;4936050;29;20460;-77
2022/04/27 00:03:55;;;;;;;8.18;4.40;;;17.30;95.30;;;;;;4935856;29;20187;-77
2022/04/27 00:06:41;;;;;;;11.98;5.18;;;16.60;96.90;;;;;;4935889;29;20138;-77
2022/04/27 00:09:28;;;;;;;7.55;4.45;;;16.70;97.30;;;;;;4935508;29;20183;-77
2022/04/27 00:12:14;;;;;;;11.48;4.80;;;16.50;97.20;;;;;;4936041;29;20186;-77
2022/04/27 00:15:01;;;;;;;11.80;4.95;;;16.30;98.20;;;;;;4935659;29;20407;-77
2022/04/27 00:17:47;;;;;;;17.52;5.18;;;16.60;97.50;;;;;;4935542;29;20406;-78
2022/04/27 00:20:33;;;;;;;10.25;4.70;;;16.80;97.30;;;;;;4935286;29;20050;-78
2022/04/27 00:23:20;;;;;;;12.75;4.30;;;16.80;97.50;;;;;;4921890;29;20059;-79
2022/04/27 00:26:10;;;;;;;11.27;4.65;;;16.30;98.20;;;;;;4936043;29;20138;-80
2022/04/27 00:28:58;;;;;;;6.72;4.28;;;16.30;98.30;;;;;;4935533;29;20525;-76
2022/04/27 00:31:44;;;;;;;8.50;4.15;;;16.20;99.10;;;;;;4935617;29;20270;-77
2022/04/27 00:34:30;;;;;;;10.52;4.70;;;16.50;99.00;;;;;;4935538;29;20156;-78
2022/04/27 00:37:18;;;;;;;11.23;4.45;;;16.60;99.30;;;;;;4935581;29;20415;-77
2022/04/27 00:40:04;;;;;;;18.02;4.72;;;16.40;99.90;;;;;;4923075;29;20517;-75
2022/04/27 00:42:50;;;;;;;13.30;4.30;;;16.20;99.90;;;;;;4917132;29;20071;-76
2022/04/27 00:45:36;;;;;;;7.28;4.85;;;16.10;99.90;;;;;;4935654;29;20064;-74
2022/04/27 00:48:22;;;;;;;8.85;4.20;;;16.30;99.90;;;;;;4934633;29;20134;-77
2022/04/27 00:51:15;;;;;;;9.93;4.30;;;16.20;99.90;;;;;;4934850;29;20150;-76
2022/04/27 00:54:01;;;;;;;7.63;4.00;;;16.00;99.90;;;;;;4934960;29;20194;-79
2022/04/27 00:56:49;;;;;;;11.32;4.25;;;16.10;99.90;;;;;;4935089;29;20059;-79
2022/04/27 00:59:34;;;;;;;13.20;4.53;;;16.00;99.90;;;;;;4934851;29;20122;-76
2022/04/27 01:02:21;;;;;;;7.75;3.78;;;16.00;99.90;;;;;;4935066;29;20055;-76
2022/04/27 01:05:11;;;;;;;8.25;4.03;;;15.80;99.90;;;;;;4934309;29;20058;-78
2022/04/27 01:08:00;;;;;;;8.95;4.00;;;15.60;99.90;;;;;;4935212;29;20131;-77
2022/04/27 01:10:47;;;;;;;6.75;4.00;;;15.70;99.90;;;;;;4934686;29;20132;-76
2022/04/27 01:13:33;;;;;;;8.30;4.03;;;15.70;99.90;;;;;;4934491;29;20712;-81
2022/04/27 01:16:19;;;;;;;7.20;3.72;;;15.60;99.90;;;;;;4934949;29;20050;-76
2022/04/27 01:19:05;;;;;;;10.32;3.92;;;15.40;99.90;;;;;;4934968;29;20091;-78
2022/04/27 01:21:54;;;;;;;9.23;4.75;;;15.60;99.90;;;;;;4934940;29;20050;-76
2022/04/27 01:24:40;;;;;;;9.90;4.10;;;15.60;99.90;;;;;;4934767;29;20054;-77
2022/04/27 01:27:26;;;;;;;8.20;4.45;;;15.60;99.90;;;;;;4920478;29;20066;-78
2022/04/27 01:30:12;;;;;;;7.45;4.18;;;15.50;99.90;;;;;;4934948;29;20047;-79
2022/04/27 01:32:58;;;;;;;8.77;4.47;;;15.50;99.90;;;;;;4935076;29;20067;-76
2022/04/27 01:35:44;;;;;;;9.88;4.80;;;15.60;99.90;;;;;;4934430;29;20431;-76
2022/04/27 01:38:39;;;;;;;6.88;4.05;;;15.40;99.90;;;;;;4935076;29;20123;-77
2022/04/27 01:41:25;;;;;;;8.45;4.50;;;15.20;99.90;;;;;;4934923;29;20066;-78
2022/04/27 01:44:11;;;;;;;9.77;4.32;;;15.30;99.90;;;;;;4925470;29;20066;-76
2022/04/27 01:46:57;;;;;;;9.10;4.43;;;15.30;99.90;;;;;;4915942;29;20059;-79
2022/04/27 01:49:43;;;;;;;10.70;4.55;;;15.30;99.90;;;;;;4915498;29;20124;-78
2022/04/27 01:55:33;;;;;;;9.52;4.40;;;15.50;99.90;;;;;;4915595;29;20055;-78
2022/04/27 01:58:19;;;;;;;13.27;4.78;;;15.40;99.90;;;;;;4915404;29;20199;-78
2022/04/27 02:01:10;;;;;;;7.63;3.92;;;15.10;99.90;;;;;;4915919;29;20055;-77
2022/04/27 02:03:57;;;;;;;7.60;3.63;;;15.10;99.90;;;;;;4915323;29;20052;-78
2022/04/27 02:06:42;;;;;;;8.98;3.88;;;15.10;99.90;;;;;;4915461;29;20059;-78
2022/04/27 02:09:28;;;;;;;7.43;3.70;;;15.00;99.90;;;;;;4915200;29;20184;-77
2022/04/27 02:12:14;;;;;;;7.00;3.42;;;15.00;99.90;;;;;;4901537;29;20059;-77
2022/04/27 02:15:02;;;;;;;6.45;3.25;;;14.90;99.90;;;;;;4917515;29;20059;-77
2022/04/27 02:17:50;;;;;;;7.63;3.55;;;14.90;99.90;;;;;;4919247;29;20047;-80
2022/04/27 02:20:36;;;;;;;7.05;3.80;;;14.80;99.90;;;;;;4919390;29;20107;-77
2022/04/27 02:23:22;;;;;;;9.30;3.70;;;14.90;99.90;;;;;;4919536;29;20054;-78
2022/04/27 02:26:08;;;;;;;6.68;3.83;;;14.80;99.90;;;;;;4919213;29;20051;-78
2022/04/27 02:28:54;;;;;;;6.88;3.47;;;14.60;99.90;;;;;;4918766;29;20107;-77
2022/04/27 02:31:40;;;;;;;8.35;4.03;;;14.50;99.90;;;;;;4918240;29;20055;-77
2022/04/27 02:34:26;;;;;;;5.88;3.95;;;14.70;99.90;;;;;;4904567;29;20070;-79
2022/04/27 02:37:12;;;;;;;7.22;3.65;;;14.80;99.90;;;;;;4918837;29;20184;-77
2022/04/27 02:39:58;;;;;;;4.75;3.13;;;14.80;99.90;;;;;;4918460;29;20055;-78
2022/04/27 02:42:44;;;;;;;6.25;3.70;;;14.80;99.90;;;;;;4919131;29;20143;-78
2022/04/27 02:45:30;;;;;;;5.28;3.33;;;14.70;99.90;;;;;;4922056;29;20050;-76
2022/04/27 02:48:16;;;;;;;10.63;4.18;;;14.70;99.90;;;;;;4937239;29;20046;-76
2022/04/27 02:54:06;;;;;;;7.88;3.50;;;14.70;99.90;;;;;;4937127;29;20142;-78
2022/04/27 02:56:53;;;;;;;5.68;3.63;;;14.70;99.90;;;;;;4922882;29;20050;-77
2022/04/27 02:59:41;;;;;;;11.00;3.60;;;14.70;99.90;;;;;;4936851;29;20050;-77
2022/04/27 03:02:27;;;;;;;6.30;3.70;;;14.70;99.90;;;;;;4937251;29;20519;-75
2022/04/27 03:05:13;;;;;;;5.50;3.55;;;14.50;99.90;;;;;;4936802;29;20203;-78
2022/04/27 03:08:00;;;;;;;13.68;4.10;;;14.60;99.90;;;;;;4937043;29;20549;-74
2022/04/27 03:10:47;;;;;;;4.72;3.20;;;14.50;99.90;;;;;;4937097;29;20062;-76
2022/04/27 03:13:33;;;;;;;6.18;3.30;;;14.50;99.90;;;;;;4937103;29;20062;-78
2022/04/27 03:16:18;;;;;;;7.60;3.55;;;14.60;99.90;;;;;;4936672;29;20491;-78
2022/04/27 03:19:04;;;;;;;7.05;3.78;;;14.50;99.90;;;;;;4922528;29;20071;-74
2022/04/27 03:21:50;;;;;;;8.13;3.95;;;14.30;99.90;;;;;;4937156;29;20070;-77
2022/04/27 03:24:37;;;;;;;6.50;3.60;;;14.30;99.90;;;;;;4936711;29;20054;-76
2022/04/27 03:27:23;;;;;;;6.95;3.67;;;14.40;99.90;;;;;;4936853;29;20527;-76
2022/04/27 03:30:10;;;;;;;12.65;4.75;;;14.50;99.90;;;;;;4936499;29;20070;-76
2022/04/27 03:32:56;;;;;;;7.20;4.00;;;14.50;99.90;;;;;;4937241;29;20525;-78
2022/04/27 03:35:43;;;;;;;12.35;4.53;;;14.60;99.90;;;;;;4936536;29;20050;-78
2022/04/27 03:38:28;;;;;;;10.98;4.13;;;14.40;99.90;;;;;;4936706;29;20058;-75
2022/04/27 03:41:20;;;;;;;5.93;3.72;;;14.50;99.90;;;;;;4936502;29;20130;-76
2022/04/27 03:44:05;;;;;;;13.23;4.00;;;14.50;99.90;;;;;;4917113;29;20088;-76
2022/04/27 03:46:51;;;;;;;12.98;3.85;;;14.60;99.90;;;;;;4917354;29;20412;-75
2022/04/27 03:49:37;;;;;;;6.30;3.40;;;14.50;99.90;;;;;;4917537;29;20168;-75
2022/04/27 03:52:24;;;;;;;9.38;3.80;;;14.50;99.90;;;;;;4917007;29;20068;-75
2022/04/27 03:55:12;;;;;;;6.50;3.90;;;14.50;99.90;;;;;;4917087;29;20047;-81
2022/04/27 03:57:58;;;;;;;11.20;4.13;;;14.60;99.90;;;;;;4917164;29;20139;-76
2022/04/27 04:00:44;;;;;;;7.60;4.25;;;14.30;99.90;;;;;;4917811;29;20131;-78
2022/04/27 04:03:30;;;;;;;5.78;3.85;;;14.20;99.90;;;;;;4902722;29;20185;-78
2022/04/27 04:06:16;;;;;;;11.93;4.35;;;14.10;99.90;;;;;;4917397;29;20066;-77
2022/04/27 04:09:02;;;;;;;7.03;4.47;;;13.90;99.90;;;;;;4917779;29;20139;-76
2022/04/27 04:11:48;;;;;;;8.52;4.22;;;14.00;99.90;;;;;;4917174;29;20417;-84
2022/04/27 04:14:37;;;;;;;7.10;4.18;;;14.00;99.90;;;;;;4916751;29;20055;-78
2022/04/27 04:17:24;;;;;;;6.45;3.80;;;14.10;99.90;;;;;;4902453;29;20055;-77
2022/04/27 04:20:14;;;;;;;9.80;4.20;;;14.20;99.90;;;;;;4916968;29;20059;-82
2022/04/27 04:23:00;;;;;;;8.73;4.88;;;14.20;99.90;;;;;;4917515;29;20054;-77
2022/04/27 04:28:50;;;;;;;9.88;4.80;;;14.10;99.90;;;;;;4916786;29;20059;-79
2022/04/27 04:31:35;;;;;;;7.60;4.35;;;14.10;99.90;;;;;;4916673;29;20491;-77
2022/04/27 04:34:26;;;;;;;11.40;4.88;;;14.10;99.90;;;;;;4917248;29;20066;-78
2022/04/27 04:37:12;;;;;;;9.73;5.10;;;14.30;99.90;;;;;;4916067;29;20055;-77
2022/04/27 04:39:58;;;;;;;8.07;4.40;;;14.50;99.90;;;;;;4916652;29;20412;-77
2022/04/27 04:42:47;;;;;;;5.93;3.97;;;14.40;99.90;;;;;;4916687;29;20104;-77
2022/04/27 04:45:32;;;;;;;6.72;4.55;;;14.40;99.90;;;;;;4931315;29;20143;-78
2022/04/27 04:48:18;;;;;;;8.27;4.28;;;14.20;99.90;;;;;;4935358;29;20117;-79
2022/04/27 04:51:04;;;;;;;9.82;4.63;;;14.30;99.90;;;;;;4935675;29;20078;-78
2022/04/27 04:53:50;;;;;;;12.05;4.78;;;14.50;99.90;;;;;;4914864;29;20407;-78
2022/04/27 04:56:36;;;;;;;9.18;4.60;;;14.40;99.90;;;;;;4916316;29;20074;-83
2022/04/27 04:59:22;;;;;;;9.93;5.03;;;14.50;99.90;;;;;;4916302;29;20070;-76
2022/04/27 05:02:08;;;;;;;13.02;5.07;;;14.40;99.90;;;;;;4916316;29;20059;-85
2022/04/27 05:04:54;;;;;;;14.30;6.72;;;14.40;99.90;;;;;;4916173;29;20048;-83
2022/04/27 05:07:40;;;;;;;62.67;37.83;;;14.60;99.90;;;;;;4916358;29;20058;-80
2022/04/27 05:10:26;;;;;;;113.72;71.13;;;14.90;99.90;;;;;;4914792;29;20095;-75
2022/04/27 05:13:12;;;;;;;84.88;61.55;;;15.00;99.90;;;;;;4915977;29;20461;-76
2022/04/27 05:15:58;;;;;;;77.50;46.10;;;15.00;99.90;;;;;;4906903;29;20124;-75
2022/04/27 05:18:44;;;;;;;82.43;45.03;;;15.10;99.90;;;;;;4906030;29;20059;-75
2022/04/27 05:21:29;;;;;;;99.38;61.17;;;15.10;99.90;;;;;;4905050;29;20091;-78
2022/04/27 05:24:16;;;;;;;115.50;65.43;;;15.50;99.90;;;;;;4905578;29;20055;-77
2022/04/27 05:27:02;;;;;;;121.90;74.88;;;15.60;99.90;;;;;;4911832;29;20066;-83
2022/04/27 05:32:56;;;;;;;14.85;6.72;;;15.30;99.90;;;;;;4897016;29;20564;-79
2022/04/27 05:35:43;;;;;;;14.20;5.43;;;15.00;99.90;;;;;;4896888;29;20524;-82
2022/04/27 05:38:29;;;;;;;11.88;5.30;;;15.10;99.90;;;;;;4904070;29;20428;-77
2022/04/27 05:41:14;;;;;;;10.60;6.03;;;15.10;99.90;;;;;;4905684;29;20136;-79
2022/04/27 05:44:07;;;;;;;9.93;5.72;;;15.00;99.90;;;;;;4907972;29;20083;-78
2022/04/27 05:46:56;;;;;;;13.15;6.13;;;15.00;99.90;;;;;;4901039;29;20169;-76
2022/04/27 05:49:42;;;;;;;9.82;6.00;;;15.10;99.90;;;;;;4907234;29;20059;-79
2022/04/27 05:52:28;;;;;;;11.57;6.03;;;15.10;99.90;;;;;;4909729;29;20423;-80
2022/04/27 05:55:14;;;;;;;14.60;6.47;;;15.20;99.90;;;;;;4921975;29;20050;-82
2022/04/27 05:58:00;;;;;;;11.30;6.35;;;15.30;99.90;;;;;;4932852;29;20148;-78
2022/04/27 06:00:46;;;;;;;12.63;5.65;;;15.30;99.90;;;;;;4930748;29;20105;-79
2022/04/27 06:03:34;;;;;;;20.13;7.20;;;15.40;99.90;;;;;;4927110;29;20051;-78
2022/04/27 06:06:21;;;;;;;12.65;5.40;;;15.60;99.90;;;;;;4923176;29;20524;-79
2022/04/27 06:09:07;;;;;;;13.63;5.30;;;15.70;99.90;;;;;;4924581;29;20062;-84
2022/04/27 06:11:53;;;;;;;15.00;5.28;;;15.80;99.90;;;;;;4919578;29;20183;-79
2022/04/27 06:14:39;;;;;;;14.93;6.18;;;15.70;99.90;;;;;;4918778;29;20071;-77
2022/04/27 06:17:25;;;;;;;15.30;5.53;;;15.90;99.90;;;;;;4919243;29;20115;-76
2022/04/27 06:20:11;;;;;;;11.80;5.03;;;16.00;99.90;;;;;;4918888;29;20063;-82
2022/04/27 06:22:57;;;;;;;13.27;5.10;;;15.90;99.90;;;;;;4919248;29;20071;-76
2022/04/27 06:25:47;;;;;;;18.02;5.55;;;16.00;99.90;;;;;;4919152;29;20071;-78
2022/04/27 06:28:33;;;;;;;11.40;5.40;;;16.00;99.90;;;;;;4918756;29;20051;-80
2022/04/27 06:31:22;;;;;;;6.95;4.15;;;16.10;99.90;;;;;;4920052;29;20051;-79
2022/04/27 06:34:08;;;;;;;13.82;4.43;;;16.20;99.90;;;;;;4923162;29;20059;-81
2022/04/27 06:36:54;;;;;;;14.63;5.65;;;16.20;99.90;;;;;;4937113;29;20510;-77
2022/04/27 06:39:40;;;;;;;83.57;50.72;;;16.40;99.90;;;;;;4928302;29;20047;-76
2022/04/27 06:42:26;;;;;;;47.17;27.35;;;16.60;99.90;;;;;;4918500;29;20075;-74
2022/04/27 06:45:12;;;;;;;15.63;9.52;;;16.80;99.90;;;;;;4904321;29;20095;-79
2022/04/27 06:47:58;;;;;;;8.48;4.50;;;16.80;99.90;;;;;;4904601;29;20055;-76
2022/04/27 06:50:44;;;;;;;10.73;4.65;;;16.60;99.90;;;;;;4918942;29;20416;-77
2022/04/27 06:53:31;;;;;;;13.32;5.32;;;16.70;99.90;;;;;;4917800;28;20064;-78
2022/04/27 06:56:22;;;;;;;12.45;4.95;;;16.80;99.90;;;;;;4918716;29;20191;-77
2022/04/27 06:59:08;;;;;;;11.77;4.60;;;17.00;99.90;;;;;;4918286;29;20575;-78
2022/04/27 07:01:54;;;;;;;9.70;4.80;;;17.00;99.90;;;;;;4918261;29;20056;-77
2022/04/27 07:04:43;;;;;;;15.18;5.10;;;17.10;99.90;;;;;;4918271;29;20577;-78
2022/04/27 07:07:29;;;;;;;13.30;4.88;;;17.10;99.90;;;;;;4918527;28;20412;-77
2022/04/27 07:10:16;;;;;;;13.82;4.68;;;17.10;99.90;;;;;;4918163;29;20066;-78
2022/04/27 07:13:03;;;;;;;12.60;4.35;;;17.20;99.90;;;;;;4918417;29;20648;-78
2022/04/27 07:15:50;;;;;;;11.43;4.63;;;17.20;99.90;;;;;;4917883;29;20188;-78
2022/04/27 07:18:36;;;;;;;13.43;4.38;;;17.30;99.40;;;;;;4917995;29;20059;-78
2022/04/27 07:21:22;;;;;;;16.85;4.28;;;17.50;99.50;;;;;;4918637;29;20063;-79
2022/04/27 07:24:08;;;;;;;9.20;4.18;;;17.30;99.40;;;;;;4917952;29;20071;-79
2022/04/27 07:26:55;;;;;;;10.55;3.90;;;17.30;99.70;;;;;;4918237;29;20075;-78
2022/04/27 07:29:41;;;;;;;13.70;4.10;;;17.40;99.70;;;;;;4917800;29;20056;-77
2022/04/27 07:32:27;;;;;;;10.07;4.57;;;17.70;99.90;;;;;;4918194;29;20066;-78
2022/04/27 07:35:13;;;;;;;9.68;3.80;;;17.90;99.60;;;;;;4917731;29;20055;-78
2022/04/27 07:37:59;;;;;;;7.00;3.97;;;18.00;98.20;;;;;;4918571;29;20067;-79
2022/04/27 07:40:46;;;;;;;8.95;3.83;;;18.00;98.50;;;;;;4918044;29;20515;-79
2022/04/27 07:43:32;;;;;;;9.27;3.90;;;18.20;98.60;;;;;;4917635;29;20103;-78
2022/04/27 07:46:18;;;;;;;9.05;4.00;;;18.20;97.60;;;;;;4917408;29;20416;-79
2022/04/27 07:49:04;;;;;;;11.45;3.75;;;18.30;97.40;;;;;;4917651;29;20127;-79
2022/04/27 07:51:51;;;;;;;8.32;3.92;;;18.10;98.00;;;;;;4917416;29;20067;-81
2022/04/27 07:54:37;;;;;;;6.40;3.40;;;18.30;99.10;;;;;;4917462;29;20059;-81
2022/04/27 07:57:23;;;;;;;13.25;4.00;;;18.40;98.00;;;;;;4917975;29;20056;-79
2022/04/27 08:00:12;;;;;;;5.80;3.28;;;18.50;97.90;;;;;;4916633;29;20063;-79
2022/04/27 08:02:58;;;;;;;10.05;3.80;;;18.50;98.00;;;;;;4917282;29;20063;-79
2022/04/27 08:05:44;;;;;;;6.25;3.55;;;18.60;98.00;;;;;;4916876;29;20067;-80
2022/04/27 08:08:31;;;;;;;11.18;4.95;;;18.70;98.10;;;;;;4917295;29;20125;-79
2022/04/27 08:11:17;;;;;;;18.17;6.47;;;18.80;97.80;;;;;;4901769;29;20059;-79
2022/04/27 08:14:03;;;;;;;19.58;5.18;;;18.70;98.30;;;;;;4916887;29;20412;-80
2022/04/27 08:16:49;;;;;;;14.00;5.30;;;18.70;98.20;;;;;;4917127;29;20054;-81
2022/04/27 08:19:35;;;;;;;8.30;4.10;;;18.70;98.70;;;;;;4916690;29;20063;-80
2022/04/27 08:22:21;;;;;;;11.25;3.72;;;18.90;97.40;;;;;;4916928;29;20129;-79
2022/04/27 08:25:07;;;;;;;11.65;3.03;;;19.00;96.30;;;;;;4916634;29;20059;-81
2022/04/27 08:27:53;;;;;;;12.57;6.05;;;19.10;97.30;;;;;;4903121;29;20106;-80
2022/04/27 08:30:45;;;;;;;13.38;3.55;;;19.30;96.00;;;;;;4916802;29;20059;-79
2022/04/27 08:33:31;;;;;;;6.53;3.30;;;19.20;95.30;;;;;;4916528;29;20055;-80
2022/04/27 08:36:16;;;;;;;8.52;3.30;;;19.30;95.40;;;;;;4916900;29;20051;-78
2022/04/27 08:39:18;;;;;;;9.45;2.90;;;19.40;95.40;;;;;;4916219;29;20110;-76
2022/04/27 08:42:04;;;;;;;4.63;2.65;;;19.50;93.70;;;;;;4915952;29;20050;-78
2022/04/27 08:44:50;;;;;;;8.30;2.70;;;19.60;93.70;;;;;;4925102;29;20055;-78
2022/04/27 08:47:36;;;;;;;8.60;2.70;;;19.70;92.60;;;;;;4925442;29;20051;-78
2022/04/27 08:50:25;;;;;;;7.07;2.40;;;19.70;91.00;;;;;;4926034;29;20058;-80
2022/04/27 08:53:11;;;;;;;6.50;3.92;;;19.70;90.90;;;;;;4915782;29;20102;-78
2022/04/27 08:55:56;;;;;;;9.45;3.65;;;19.80;91.10;;;;;;4916671;29;20043;-77
2022/04/27 08:58:42;;;;;;;10.48;4.35;;;19.80;92.50;;;;;;4901691;29;20126;-77
2022/04/27 09:01:30;;;;;;;8.98;3.33;;;20.10;92.60;;;;;;4906721;29;20043;-79
2022/04/27 09:04:19;;;;;;;10.07;2.40;;;20.30;92.10;;;;;;4923671;29;20062;-77
2022/04/27 09:07:17;;;;;;;6.28;2.80;;;20.60;91.00;;;;;;4921377;29;20119;-81
2022/04/27 09:10:14;;;;;;;5.55;2.78;;;20.60;90.20;;;;;;4902730;29;20063;-80
2022/04/27 09:13:03;;;;;;;5.85;3.28;;;20.70;90.60;;;;;;4916034;29;20063;-77
2022/04/27 09:16:01;;;;;;;7.72;2.83;;;20.90;88.30;;;;;;4916308;29;20055;-78
2022/04/27 09:22:14;;;;;;;5.00;2.63;;;20.80;87.60;;;;;;4915830;29;20461;-78
2022/04/27 09:25:01;;;;;;;5.55;2.80;;;20.80;88.50;;;;;;4915898;29;20051;-81
2022/04/27 09:27:53;;;;;;;6.88;2.58;;;20.90;86.90;;;;;;4901693;29;20106;-78
2022/04/27 09:34:50;;;;;;;;;;;21.40;80.70;;;;;;4876783;29;20193;-80
2022/04/27 09:37:41;;;;;;;5.75;2.30;;;21.60;82.00;;;;;;4876002;29;19957;-78
2022/04/27 09:40:27;;;;;;;6.03;2.35;;;21.50;81.50;;;;;;4876301;29;20064;-78
2022/04/27 09:43:16;;;;;;;7.40;2.35;;;21.70;81.40;;;;;;4875843;29;20056;-80
2022/04/27 09:46:22;;;;;;;8.45;2.50;;;21.40;78.80;;;;;;4876093;29;20117;-80
2022/04/27 09:49:43;;;;;;;5.82;2.13;;;21.50;81.50;;;;;;4875296;29;20104;-81
2022/04/27 09:52:34;;;;;;;6.63;2.20;;;21.80;78.90;;;;;;4875506;29;20064;-80
2022/04/27 09:55:22;;;;;;;5.50;2.35;;;21.80;76.40;;;;;;4875925;29;20124;-83
2022/04/27 09:58:14;;;;;;;4.88;2.03;;;22.00;75.30;;;;;;4875881;29;20420;-79
2022/04/27 10:01:04;;;;;;;5.68;2.20;;;22.10;70.30;;;;;;4876269;29;20113;-80
2022/04/27 10:04:07;;;;;;;11.43;2.10;;;22.20;71.70;;;;;;4875459;29;20053;-76
2022/04/27 10:07:00;;;;;;;14.23;2.60;;;22.50;71.40;;;;;;4862929;29;20213;-80
2022/04/27 10:09:47;;;;;;;5.15;1.58;;;22.50;71.80;;;;;;4875887;29;20052;-82
2022/04/27 10:12:38;;;;;;;5.20;1.90;;;22.60;68.80;;;;;;4902061;29;20238;-81
2022/04/27 10:15:50;;;;;;;5.10;1.83;;;22.70;69.80;;;;;;4868769;29;20059;-83
2022/04/27 10:18:36;;;;;;;7.05;2.05;;;22.80;70.80;;;;;;4915245;29;20111;-82
2022/04/27 10:21:56;;;;;;;7.50;2.42;;;23.10;70.30;;;;;;4901510;29;20047;-80
2022/04/27 10:24:49;;;;;;;5.43;2.10;;;23.20;70.40;;;;;;4901050;29;20051;-83
2022/04/27 10:27:44;;;;;;;6.57;1.90;;;23.10;69.00;;;;;;4915984;29;20063;-77
2022/04/27 10:30:44;;;;;;;4.25;1.80;;;23.40;70.10;;;;;;4903450;29;20054;-79
2022/04/27 10:33:41;;;;;;;5.72;2.10;;;23.60;69.60;;;;;;4915034;29;20063;-80
2022/04/27 10:36:43;;;;;;;6.25;2.17;;;23.80;71.10;;;;;;4917905;29;20063;-80
2022/04/27 10:39:35;;;;;;;2.97;1.60;;;23.70;70.30;;;;;;4905863;29;20191;-83
2022/04/27 10:42:23;;;;;;;6.30;1.80;;;23.80;68.90;;;;;;4919338;29;20135;-82
2022/04/27 10:45:22;;;;;;;8.15;1.98;;;23.90;69.20;;;;;;4927058;29;20050;-79
2022/04/27 10:48:43;;;;;;;4.05;1.95;;;24.00;68.30;;;;;;4927666;29;20055;-81
2022/04/27 10:52:20;;;;;;;;;;;;;;;;;;;;;
2022/04/27 10:55:26;;;;;;;4.72;1.73;;;23.70;66.70;;;;;;4926502;29;20150;-81
2022/04/27 10:58:45;;;;;;;8.75;2.00;;;23.90;65.60;;;;;;4910212;29;20152;-77
2022/04/27 11:01:32;;;;;;;6.65;2.10;;;24.20;68.00;;;;;;4927365;29;20591;-79
2022/04/27 11:04:22;;;;;;;7.47;2.05;;;24.50;65.30;;;;;;4927808;29;20090;-77
2022/04/27 11:07:53;;;;;;;5.25;1.88;;;24.60;63.30;;;;;;4926728;29;20180;-81
2022/04/27 11:10:43;;;;;;;7.43;1.65;;;24.70;63.60;;;;;;4926716;29;20619;-79
2022/04/27 11:13:42;;;;;;;8.73;1.88;;;24.70;63.70;;;;;;4926365;29;20120;-77
2022/04/27 11:16:28;;;;;;;8.77;2.08;;;25.00;63.50;;;;;;4926156;29;20123;-79
2022/04/27 11:20:24;;;;;;;7.82;2.28;;;24.90;63.80;;;;;;4916155;29;20063;-79
2022/04/27 11:24:01;;;;;;;;;;;;;;;;;;;;;
2022/04/27 11:26:49;;;;;;;4.93;1.88;;;25.20;63.10;;;;;;4917504;29;20055;-78
2022/04/27 11:29:52;;;;;;;5.28;2.08;;;25.20;62.90;;;;;;4917072;29;20043;-78
2022/04/27 11:32:45;;;;;;;5.85;1.92;;;25.20;63.70;;;;;;4928460;29;20527;-80
2022/04/27 11:35:47;;;;;;;6.63;2.10;;;25.40;62.80;;;;;;4926299;29;20059;-77
2022/04/27 11:38:37;;;;;;;4.40;1.80;;;25.30;63.00;;;;;;4926532;29;20184;-79
2022/04/27 11:41:27;;;;;;;5.85;2.15;;;25.30;61.20;;;;;;4924100;29;20051;-80
2022/04/27 11:44:42;;;;;;;6.57;1.88;;;25.30;61.50;;;;;;4926856;29;20518;-78
2022/04/27 11:47:31;;;;;;;4.43;2.05;;;25.50;61.60;;;;;;4908945;29;20188;-79
2022/04/27 11:50:20;;;;;;;7.57;2.40;;;25.70;62.10;;;;;;4926507;29;20054;-80
2022/04/27 11:53:12;;;;;;;8.88;1.95;;;25.80;61.40;;;;;;4924329;29;20063;-77
2022/04/27 11:55:59;;;;;;;7.75;2.22;;;25.70;61.20;;;;;;4926661;29;20459;-77
2022/04/27 11:58:49;;;;;;;7.32;2.30;;;25.30;63.00;;;;;;4924074;29;20368;-79
2022/04/27 12:01:39;;;;;;;16.08;2.42;;;25.50;60.70;;;;;;4926601;29;20057;-76
2022/04/27 12:04:44;;;;;;;4.55;1.90;;;25.50;60.90;;;;;;4923773;29;20183;-79
2022/04/27 12:07:37;;;;;;;3.38;1.60;;;25.60;60.30;;;;;;4924050;29;20216;-80
2022/04/27 12:10:29;;;;;;;4.28;1.80;;;26.00;59.30;;;;;;4925594;29;20059;-79
2022/04/27 12:13:28;;;;;;;5.22;2.00;;;26.20;59.70;;;;;;4911558;29;20046;-77
2022/04/27 12:16:21;;;;;;;6.40;1.70;;;26.00;59.00;;;;;;4912229;29;20078;-76
2022/04/27 12:19:07;;;;;;;5.50;2.10;;;26.00;59.50;;;;;;4927146;29;20051;-78
2022/04/27 12:22:23;;;;;;;8.77;1.80;;;26.10;60.20;;;;;;4911506;29;20054;-77
2022/04/27 12:26:25;;;;;;;6.03;1.90;;;26.40;60.10;;;;;;4917750;29;20098;-76
2022/04/27 12:29:11;;;;;;;5.22;2.00;;;26.90;57.40;;;;;;4921615;29;20091;-78
2022/04/27 12:31:57;;;;;;;7.82;1.60;;;27.10;57.40;;;;;;4919355;29;20058;-78
2022/04/27 12:37:52;;;;;;;5.88;1.60;;;27.40;54.70;;;;;;4937777;29;20059;-82
2022/04/27 12:40:42;;;;;;;4.82;1.75;;;27.30;54.80;;;;;;4942431;29;20062;-83
2022/04/27 12:43:32;;;;;;;4.30;1.90;;;27.60;55.10;;;;;;4954858;29;20577;-85
2022/04/27 12:46:19;;;;;;;3.60;1.52;;;27.50;54.90;;;;;;4933789;29;20082;-78
2022/04/27 12:49:07;;;;;;;8.68;2.13;;;27.20;55.60;;;;;;4921067;29;20142;-78
2022/04/27 12:51:57;;;;;;;3.90;1.60;;;27.40;56.40;;;;;;4935120;29;20554;-84
2022/04/27 12:54:44;;;;;;;5.10;1.90;;;27.50;53.70;;;;;;4916131;29;20111;-81
2022/04/27 12:57:50;;;;;;;3.80;1.40;;;27.60;53.50;;;;;;4915940;29;20144;-82
2022/04/27 13:00:51;;;;;;;4.43;1.50;;;27.80;52.20;;;;;;4915832;29;20176;-78
2022/04/27 13:03:44;;;;;;;6.00;1.70;;;27.80;52.10;;;;;;4901550;29;20420;-76
2022/04/27 13:06:30;;;;;;;5.50;1.45;;;27.90;52.70;;;;;;4915853;29;20055;-79
2022/04/27 13:12:32;;;;;;;6.32;1.70;;;28.10;53.20;;;;;;4915399;29;20196;-77
2022/04/27 13:15:18;;;;;;;7.63;1.60;;;28.30;52.00;;;;;;4915386;29;20062;-79
2022/04/27 13:18:34;;;;;;;5.75;1.80;;;28.20;51.60;;;;;;4915382;29;20051;-76
2022/04/27 13:21:22;;;;;;;6.60;1.90;;;28.40;51.10;;;;;;4908426;29;20091;-77
2022/04/27 13:24:08;;;;;;;7.47;2.00;;;28.70;52.00;;;;;;4922181;29;20071;-78
2022/04/27 13:26:54;;;;;;;3.53;1.50;;;29.00;52.20;;;;;;4923670;29;20142;-79
2022/04/27 13:29:40;;;;;;;4.65;1.27;;;29.00;51.00;;;;;;4929070;29;20092;-80
2022/04/27 13:32:26;;;;;;;5.38;1.65;;;29.00;50.80;;;;;;4924308;29;20054;-79
2022/04/27 13:35:15;;;;;;;4.28;1.70;;;29.10;51.30;;;;;;4909868;29;20071;-80
2022/04/27 13:38:29;;;;;;;5.28;1.67;;;29.30;50.40;;;;;;4924356;29;20527;-77
2022/04/27 13:41:19;;;;;;;5.45;1.52;;;29.40;49.40;;;;;;4923556;29;20103;-78
2022/04/27 13:44:08;;;;;;;;;;;29.40;49.70;;;;;;4924355;29;20918;-77
2022/04/27 13:46:57;;;;;;;2.65;1.38;;;30.20;49.10;;;;;;4923050;29;20327;-77
2022/04/27 13:49:46;;;;;;;4.30;1.38;;;31.50;47.80;;;;;;4924018;29;20051;-79
2022/04/27 13:52:53;;;;;;;3.45;1.40;;;31.90;46.90;;;;;;4912568;29;20110;-79
2022/04/27 13:55:39;;;;;;;3.17;1.63;;;29.80;48.00;;;;;;4923973;29;20460;-79
2022/04/27 13:58:25;;;;;;;6.07;1.70;;;29.90;46.90;;;;;;4924663;29;20059;-79
2022/04/27 14:01:31;;;;;;;7.25;2.00;;;32.00;45.90;;;;;;4922975;29;20058;-81
2022/04/27 14:04:17;;;;;;;9.23;2.10;;;33.00;43.90;;;;;;4908784;29;20047;-79
2022/04/27 14:07:09;;;;;;;4.28;1.77;;;33.20;43.80;;;;;;4924319;29;20055;-81
2022/04/27 14:09:55;;;;;;;5.30;1.50;;;32.20;43.80;;;;;;4923386;29;20180;-79
2022/04/27 14:18:57;;;;;;;3.95;1.85;;;33.50;43.80;;;;;;4927198;29;20507;-79
2022/04/27 14:21:43;;;;;;;6.13;1.58;;;34.00;43.90;;;;;;4919208;29;20051;-79
2022/04/27 14:24:30;;;;;;;3.78;1.20;;;34.00;43.40;;;;;;4918174;29;20169;-79
2022/04/27 14:27:16;;;;;;;4.78;1.67;;;32.90;43.50;;;;;;4918812;29;20084;-79
2022/04/27 14:30:04;;;;;;;12.20;1.90;;;31.30;45.20;;;;;;4943463;29;20070;-79
2022/04/27 14:32:51;;;;;;;4.97;1.55;;;31.10;45.40;;;;;;4956767;29;20074;-79
2022/04/27 14:35:39;;;;;;;9.80;1.42;;;29.10;47.30;;;;;;4924918;29;20059;-81
2022/04/27 14:38:24;;;;;;;7.00;1.77;;;31.00;45.40;;;;;;4918702;29;20051;-81
2022/04/27 14:41:14;;;;;;;3.75;1.50;;;31.80;44.00;;;;;;4910465;29;20498;-79
2022/04/27 14:44:01;;;;;;;4.75;2.03;;;33.00;44.40;;;;;;4926242;29;20514;-82
2022/04/27 14:46:50;;;;;;;3.85;2.10;;;32.40;45.20;;;;;;4927655;29;20084;-78
2022/04/27 14:49:36;;;;;;;5.22;2.20;;;31.80;44.60;;;;;;4928978;29;20054;-79
2022/04/27 14:52:23;;;;;;;6.15;2.42;;;31.50;44.50;;;;;;4926896;29;20424;-79
2022/04/27 14:55:09;;;;;;;6.30;2.30;;;32.10;44.30;;;;;;4927438;29;20067;-78
2022/04/27 14:57:55;;;;;;;9.25;1.92;;;31.40;45.80;;;;;;4928271;29;20114;-79
2022/04/27 15:00:41;;;;;;;4.00;2.00;;;31.50;46.00;;;;;;4912430;29;20095;-80
2022/04/27 15:03:30;;;;;;;6.40;1.67;;;32.50;44.90;;;;;;4927186;29;20046;-81
2022/04/27 15:06:17;;;;;;;5.18;1.63;;;30.30;46.20;;;;;;4922976;29;20058;-80
2022/04/27 15:09:03;;;;;;;4.68;1.40;;;29.30;47.70;;;;;;4936958;29;20054;-79
2022/04/27 15:11:49;;;;;;;4.18;1.60;;;31.00;45.10;;;;;;4937176;29;20573;-80
2022/04/27 15:14:35;;;;;;;7.63;2.00;;;31.10;45.40;;;;;;4936951;29;20059;-80